sensor_id;sensor_type;location;lat;lon;timestamp;temperature;humidity
37310;DHT22;23195;47.744;7.358;2024-03-08T00:00:15;2.20;99.90
37310;DHT22;23195;47.744;7.358;2024-03-08T00:02:44;2.30;99.90
37310;DHT22;23195;47.744;7.358;2024-03-08T00:05:11;2.30;99.90
37310;DHT22;23195;47.744;7.358;2024-03-08T00:07:43;2.30;99.90
37310;DHT22;23195;47.744;7.358;2024-03-08T00:10:14;2.20;99.90
37310;DHT22;23195;47.744;7.358;2024-03-08T00:12:48;1.50;99.90
37310;DHT22;23195;47.744;7.358;2024-03-08T00:15:16;1.70;99.90
37310;DHT22;23195;47.744;7.358;2024-03-08T00:17:42;2.20;99.90
37310;DHT22;23195;47.744;7.358;2024-03-08T00:20:10;2.20;99.90
37310;DHT22;23195;47.744;7.358;2024-03-08T00:22:39;2.20;99.90
37310;DHT22;23195;47.744;7.358;2024-03-08T00:25:06;2.10;99.90
37310;DHT22;23195;47.744;7.358;2024-03-08T00:27:40;2.20;99.90
37310;DHT22;23195;47.744;7.358;2024-03-08T00:30:09;2.10;99.90
37310;DHT22;23195;47.744;7.358;2024-03-08T00:32:37;2.10;99.90
37310;DHT22;23195;47.744;7.358;2024-03-08T00:35:04;2.10;99.90
37310;DHT22;23195;47.744;7.358;2024-03-08T00:37:32;2.00;99.90
37310;DHT22;23195;47.744;7.358;2024-03-08T00:40:00;2.00;99.90
37310;DHT22;23195;47.744;7.358;2024-03-08T00:42:26;2.10;99.90
37310;DHT22;23195;47.744;7.358;2024-03-08T00:44:54;2.00;99.90
37310;DHT22;23195;47.744;7.358;2024-03-08T00:47:20;2.00;99.90
37310;DHT22;23195;47.744;7.358;2024-03-08T00:49:46;2.00;99.90
37310;DHT22;23195;47.744;7.358;2024-03-08T00:52:22;2.00;99.90
37310;DHT22;23195;47.744;7.358;2024-03-08T00:54:52;2.00;99.90
37310;DHT22;23195;47.744;7.358;2024-03-08T00:57:18;1.90;99.90
37310;DHT22;23195;47.744;7.358;2024-03-08T00:59:50;1.90;99.90
37310;DHT22;23195;47.744;7.358;2024-03-08T01:02:23;1.90;99.90
37310;DHT22;23195;47.744;7.358;2024-03-08T01:04:49;1.90;99.90
37310;DHT22;23195;47.744;7.358;2024-03-08T01:07:15;1.90;99.90
37310;DHT22;23195;47.744;7.358;2024-03-08T01:09:51;1.90;99.90
37310;DHT22;23195;47.744;7.358;2024-03-08T01:12:38;1.90;99.90
37310;DHT22;23195;47.744;7.358;2024-03-08T01:15:06;1.80;99.90
37310;DHT22;23195;47.744;7.358;2024-03-08T01:17:32;1.80;99.90
37310;DHT22;23195;47.744;7.358;2024-03-08T01:19:58;1.80;99.90
37310;DHT22;23195;47.744;7.358;2024-03-08T01:22:24;1.80;99.90
37310;DHT22;23195;47.744;7.358;2024-03-08T01:24:50;1.80;99.90
37310;DHT22;23195;47.744;7.358;2024-03-08T01:27:15;1.70;99.90
37310;DHT22;23195;47.744;7.358;2024-03-08T01:29:41;1.70;99.90
37310;DHT22;23195;47.744;7.358;2024-03-08T01:32:16;1.80;99.90
37310;DHT22;23195;47.744;7.358;2024-03-08T01:34:42;1.80;99.90
37310;DHT22;23195;47.744;7.358;2024-03-08T01:37:17;1.30;99.90
37310;DHT22;23195;47.744;7.358;2024-03-08T01:39:43;1.70;99.90
37310;DHT22;23195;47.744;7.358;2024-03-08T01:42:11;1.70;99.90
37310;DHT22;23195;47.744;7.358;2024-03-08T01:44:40;1.70;99.90
37310;DHT22;23195;47.744;7.358;2024-03-08T01:47:06;1.70;99.90
37310;DHT22;23195;47.744;7.358;2024-03-08T01:49:33;1.70;99.90
37310;DHT22;23195;47.744;7.358;2024-03-08T01:52:01;1.70;99.90
37310;DHT22;23195;47.744;7.358;2024-03-08T01:54:27;1.60;99.90
37310;DHT22;23195;47.744;7.358;2024-03-08T01:56:58;1.60;99.90
37310;DHT22;23195;47.744;7.358;2024-03-08T01:59:25;1.70;99.90
37310;DHT22;23195;47.744;7.358;2024-03-08T02:02:00;1.40;99.90
37310;DHT22;23195;47.744;7.358;2024-03-08T02:04:29;2.40;99.90
37310;DHT22;23195;47.744;7.358;2024-03-08T02:06:58;1.70;99.90
37310;DHT22;23195;47.744;7.358;2024-03-08T02:09:24;1.60;99.90
37310;DHT22;23195;47.744;7.358;2024-03-08T02:11:51;1.50;99.90
37310;DHT22;23195;47.744;7.358;2024-03-08T02:14:19;1.60;99.90
37310;DHT22;23195;47.744;7.358;2024-03-08T02:16:49;1.60;99.90
37310;DHT22;23195;47.744;7.358;2024-03-08T02:19:16;1.50;99.90
37310;DHT22;23195;47.744;7.358;2024-03-08T02:21:46;1.60;99.90
37310;DHT22;23195;47.744;7.358;2024-03-08T02:24:13;1.50;99.90
37310;DHT22;23195;47.744;7.358;2024-03-08T02:26:39;1.50;99.90
37310;DHT22;23195;47.744;7.358;2024-03-08T02:29:14;1.50;99.90
37310;DHT22;23195;47.744;7.358;2024-03-08T02:31:40;2.50;99.90
37310;DHT22;23195;47.744;7.358;2024-03-08T02:34:12;1.60;99.90
37310;DHT22;23195;47.744;7.358;2024-03-08T02:36:41;1.50;99.90
37310;DHT22;23195;47.744;7.358;2024-03-08T02:39:15;1.40;99.90
37310;DHT22;23195;47.744;7.358;2024-03-08T02:41:41;1.40;99.90
37310;DHT22;23195;47.744;7.358;2024-03-08T02:44:08;1.50;99.90
37310;DHT22;23195;47.744;7.358;2024-03-08T02:46:40;1.40;99.90
37310;DHT22;23195;47.744;7.358;2024-03-08T02:49:06;1.40;99.90
37310;DHT22;23195;47.744;7.358;2024-03-08T02:51:35;1.40;99.90
37310;DHT22;23195;47.744;7.358;2024-03-08T02:54:04;1.40;99.90
37310;DHT22;23195;47.744;7.358;2024-03-08T02:56:34;1.30;99.90
37310;DHT22;23195;47.744;7.358;2024-03-08T02:59:02;1.40;99.90
37310;DHT22;23195;47.744;7.358;2024-03-08T03:01:41;1.30;99.90
37310;DHT22;23195;47.744;7.358;2024-03-08T03:04:07;1.30;99.90
37310;DHT22;23195;47.744;7.358;2024-03-08T03:06:32;1.30;99.90
37310;DHT22;23195;47.744;7.358;2024-03-08T03:09:03;1.30;99.90
37310;DHT22;23195;47.744;7.358;2024-03-08T03:11:44;1.30;99.90
37310;DHT22;23195;47.744;7.358;2024-03-08T03:14:13;1.30;99.90
37310;DHT22;23195;47.744;7.358;2024-03-08T03:16:39;0.70;99.90
37310;DHT22;23195;47.744;7.358;2024-03-08T03:19:16;1.20;99.90
37310;DHT22;23195;47.744;7.358;2024-03-08T03:21:42;1.20;99.90
37310;DHT22;23195;47.744;7.358;2024-03-08T03:24:17;1.20;99.90
37310;DHT22;23195;47.744;7.358;2024-03-08T03:26:46;1.20;99.90
37310;DHT22;23195;47.744;7.358;2024-03-08T03:29:19;1.20;99.90
37310;DHT22;23195;47.744;7.358;2024-03-08T03:31:49;1.20;99.90
37310;DHT22;23195;47.744;7.358;2024-03-08T03:34:15;1.20;99.90
37310;DHT22;23195;47.744;7.358;2024-03-08T03:36:41;1.10;99.90
37310;DHT22;23195;47.744;7.358;2024-03-08T03:39:11;0.70;99.90
37310;DHT22;23195;47.744;7.358;2024-03-08T03:41:42;1.10;99.90
37310;DHT22;23195;47.744;7.358;2024-03-08T03:44:10;1.20;99.90
37310;DHT22;23195;47.744;7.358;2024-03-08T03:46:47;1.20;99.90
37310;DHT22;23195;47.744;7.358;2024-03-08T03:49:13;1.20;99.90
37310;DHT22;23195;47.744;7.358;2024-03-08T03:51:41;1.10;99.90
37310;DHT22;23195;47.744;7.358;2024-03-08T03:54:12;1.10;99.90
37310;DHT22;23195;47.744;7.358;2024-03-08T03:56:38;1.10;99.90
37310;DHT22;23195;47.744;7.358;2024-03-08T03:59:10;1.10;99.90
37310;DHT22;23195;47.744;7.358;2024-03-08T04:01:46;1.10;99.90
37310;DHT22;23195;47.744;7.358;2024-03-08T04:04:15;1.10;99.90
37310;DHT22;23195;47.744;7.358;2024-03-08T04:06:41;1.00;99.90
37310;DHT22;23195;47.744;7.358;2024-03-08T04:09:17;1.00;99.90
37310;DHT22;23195;47.744;7.358;2024-03-08T04:11:48;1.10;99.90
37310;DHT22;23195;47.744;7.358;2024-03-08T04:14:17;1.00;99.90
37310;DHT22;23195;47.744;7.358;2024-03-08T04:16:43;-0.20;99.90
37310;DHT22;23195;47.744;7.358;2024-03-08T04:19:12;1.10;99.90
37310;DHT22;23195;47.744;7.358;2024-03-08T04:21:47;1.00;99.90
37310;DHT22;23195;47.744;7.358;2024-03-08T04:24:13;1.00;99.90
37310;DHT22;23195;47.744;7.358;2024-03-08T04:26:42;0.90;99.90
37310;DHT22;23195;47.744;7.358;2024-03-08T04:29:07;0.90;99.90
37310;DHT22;23195;47.744;7.358;2024-03-08T04:31:33;0.80;99.90
37310;DHT22;23195;47.744;7.358;2024-03-08T04:34:02;0.90;99.90
37310;DHT22;23195;47.744;7.358;2024-03-08T04:36:30;0.90;99.90
37310;DHT22;23195;47.744;7.358;2024-03-08T04:38:56;0.90;99.90
37310;DHT22;23195;47.744;7.358;2024-03-08T04:41:26;1.00;99.90
37310;DHT22;23195;47.744;7.358;2024-03-08T04:43:57;0.90;99.90
37310;DHT22;23195;47.744;7.358;2024-03-08T04:46:26;1.70;99.90
37310;DHT22;23195;47.744;7.358;2024-03-08T04:48:54;1.00;99.90
37310;DHT22;23195;47.744;7.358;2024-03-08T04:51:19;0.90;99.90
37310;DHT22;23195;47.744;7.358;2024-03-08T04:53:48;-0.10;99.90
37310;DHT22;23195;47.744;7.358;2024-03-08T04:56:15;1.00;99.90
37310;DHT22;23195;47.744;7.358;2024-03-08T04:58:41;1.00;99.90
37310;DHT22;23195;47.744;7.358;2024-03-08T05:01:10;0.90;99.90
37310;DHT22;23195;47.744;7.358;2024-03-08T05:03:36;1.00;99.90
37310;DHT22;23195;47.744;7.358;2024-03-08T05:06:02;1.00;99.90
37310;DHT22;23195;47.744;7.358;2024-03-08T05:08:31;1.00;99.90
37310;DHT22;23195;47.744;7.358;2024-03-08T05:11:00;1.00;99.90
37310;DHT22;23195;47.744;7.358;2024-03-08T05:13:30;1.00;99.90
37310;DHT22;23195;47.744;7.358;2024-03-08T05:16:02;1.10;99.90
37310;DHT22;23195;47.744;7.358;2024-03-08T05:18:28;0.90;99.90
37310;DHT22;23195;47.744;7.358;2024-03-08T05:20:54;0.90;99.90
37310;DHT22;23195;47.744;7.358;2024-03-08T05:23:20;1.00;99.90
37310;DHT22;23195;47.744;7.358;2024-03-08T05:25:47;0.90;99.90
37310;DHT22;23195;47.744;7.358;2024-03-08T05:28:13;0.90;99.90
37310;DHT22;23195;47.744;7.358;2024-03-08T05:30:42;0.80;99.90
37310;DHT22;23195;47.744;7.358;2024-03-08T05:33:10;0.90;99.90
37310;DHT22;23195;47.744;7.358;2024-03-08T05:35:36;0.80;99.90
37310;DHT22;23195;47.744;7.358;2024-03-08T05:38:05;0.80;99.90
37310;DHT22;23195;47.744;7.358;2024-03-08T05:40:34;0.80;99.90
37310;DHT22;23195;47.744;7.358;2024-03-08T05:43:00;0.80;99.90
37310;DHT22;23195;47.744;7.358;2024-03-08T05:45:26;0.80;99.90
37310;DHT22;23195;47.744;7.358;2024-03-08T05:47:55;0.80;99.90
37310;DHT22;23195;47.744;7.358;2024-03-08T05:50:22;0.80;99.90
37310;DHT22;23195;47.744;7.358;2024-03-08T05:52:48;0.90;99.90
37310;DHT22;23195;47.744;7.358;2024-03-08T05:55:14;0.90;99.90
37310;DHT22;23195;47.744;7.358;2024-03-08T05:57:48;0.70;99.90
37310;DHT22;23195;47.744;7.358;2024-03-08T06:00:14;1.00;99.90
37310;DHT22;23195;47.744;7.358;2024-03-08T06:02:41;1.10;99.90
37310;DHT22;23195;47.744;7.358;2024-03-08T06:05:11;1.10;99.90
37310;DHT22;23195;47.744;7.358;2024-03-08T06:07:37;1.20;99.90
37310;DHT22;23195;47.744;7.358;2024-03-08T06:10:10;1.40;99.90
37310;DHT22;23195;47.744;7.358;2024-03-08T06:12:38;1.40;99.90
37310;DHT22;23195;47.744;7.358;2024-03-08T06:15:11;0.60;99.90
37310;DHT22;23195;47.744;7.358;2024-03-08T06:17:47;1.60;99.90
37310;DHT22;23195;47.744;7.358;2024-03-08T06:20:13;1.50;99.90
37310;DHT22;23195;47.744;7.358;2024-03-08T06:22:39;1.60;99.90
37310;DHT22;23195;47.744;7.358;2024-03-08T06:25:07;1.60;99.90
37310;DHT22;23195;47.744;7.358;2024-03-08T06:27:33;1.80;99.90
37310;DHT22;23195;47.744;7.358;2024-03-08T06:30:00;1.70;99.90
37310;DHT22;23195;47.744;7.358;2024-03-08T06:32:26;1.80;99.90
37310;DHT22;23195;47.744;7.358;2024-03-08T06:34:55;1.80;99.90
37310;DHT22;23195;47.744;7.358;2024-03-08T06:37:21;1.90;99.90
37310;DHT22;23195;47.744;7.358;2024-03-08T06:39:48;1.90;99.90
37310;DHT22;23195;47.744;7.358;2024-03-08T06:42:14;1.90;99.90
37310;DHT22;23195;47.744;7.358;2024-03-08T06:44:40;1.80;99.90
37310;DHT22;23195;47.744;7.358;2024-03-08T06:47:14;2.00;99.90
37310;DHT22;23195;47.744;7.358;2024-03-08T06:49:43;2.10;99.90
37310;DHT22;23195;47.744;7.358;2024-03-08T06:52:12;2.20;99.90
37310;DHT22;23195;47.744;7.358;2024-03-08T06:54:38;2.10;99.90
37310;DHT22;23195;47.744;7.358;2024-03-08T06:57:07;2.30;99.90
37310;DHT22;23195;47.744;7.358;2024-03-08T06:59:35;2.40;99.90
37310;DHT22;23195;47.744;7.358;2024-03-08T07:02:02;2.60;99.90
37310;DHT22;23195;47.744;7.358;2024-03-08T07:04:28;2.70;99.90
37310;DHT22;23195;47.744;7.358;2024-03-08T07:06:59;2.70;99.90
37310;DHT22;23195;47.744;7.358;2024-03-08T07:09:28;2.80;99.90
37310;DHT22;23195;47.744;7.358;2024-03-08T07:11:53;3.00;99.90
37310;DHT22;23195;47.744;7.358;2024-03-08T07:14:23;3.10;99.90
37310;DHT22;23195;47.744;7.358;2024-03-08T07:16:51;3.20;99.90
37310;DHT22;23195;47.744;7.358;2024-03-08T07:19:20;3.30;99.90
37310;DHT22;23195;47.744;7.358;2024-03-08T07:21:47;3.40;99.90
37310;DHT22;23195;47.744;7.358;2024-03-08T07:24:13;3.40;99.90
37310;DHT22;23195;47.744;7.358;2024-03-08T07:26:57;3.50;99.90
37310;DHT22;23195;47.744;7.358;2024-03-08T07:29:24;3.70;99.90
37310;DHT22;23195;47.744;7.358;2024-03-08T07:31:57;3.80;99.90
37310;DHT22;23195;47.744;7.358;2024-03-08T07:34:38;4.10;99.90
37310;DHT22;23195;47.744;7.358;2024-03-08T07:37:06;4.90;99.90
37310;DHT22;23195;47.744;7.358;2024-03-08T07:39:39;5.80;99.90
37310;DHT22;23195;47.744;7.358;2024-03-08T07:42:05;6.30;99.90
37310;DHT22;23195;47.744;7.358;2024-03-08T07:44:31;6.40;99.90
37310;DHT22;23195;47.744;7.358;2024-03-08T07:47:00;6.10;99.90
37310;DHT22;23195;47.744;7.358;2024-03-08T07:49:26;6.00;99.90
37310;DHT22;23195;47.744;7.358;2024-03-08T07:51:52;6.40;99.90
37310;DHT22;23195;47.744;7.358;2024-03-08T07:54:23;6.90;99.90
37310;DHT22;23195;47.744;7.358;2024-03-08T07:56:51;7.20;99.90
37310;DHT22;23195;47.744;7.358;2024-03-08T07:59:19;8.30;99.90
37310;DHT22;23195;47.744;7.358;2024-03-08T08:01:49;9.20;99.90
37310;DHT22;23195;47.744;7.358;2024-03-08T08:04:25;10.10;99.90
37310;DHT22;23195;47.744;7.358;2024-03-08T08:07:01;10.70;99.90
37310;DHT22;23195;47.744;7.358;2024-03-08T08:09:27;10.40;99.90
37310;DHT22;23195;47.744;7.358;2024-03-08T08:12:00;10.30;99.90
37310;DHT22;23195;47.744;7.358;2024-03-08T08:14:31;10.00;99.90
37310;DHT22;23195;47.744;7.358;2024-03-08T08:16:57;10.20;99.90
37310;DHT22;23195;47.744;7.358;2024-03-08T08:19:30;10.40;99.90
37310;DHT22;23195;47.744;7.358;2024-03-08T08:22:02;9.40;99.90
37310;DHT22;23195;47.744;7.358;2024-03-08T08:24:28;10.30;99.90
37310;DHT22;23195;47.744;7.358;2024-03-08T08:27:02;10.00;99.90
37310;DHT22;23195;47.744;7.358;2024-03-08T08:29:42;9.80;99.90
37310;DHT22;23195;47.744;7.358;2024-03-08T08:32:23;9.60;99.90
37310;DHT22;23195;47.744;7.358;2024-03-08T08:35:13;9.50;99.90
37310;DHT22;23195;47.744;7.358;2024-03-08T08:37:48;10.00;99.90
37310;DHT22;23195;47.744;7.358;2024-03-08T08:40:14;9.70;99.90
37310;DHT22;23195;47.744;7.358;2024-03-08T08:42:47;9.50;99.90
37310;DHT22;23195;47.744;7.358;2024-03-08T08:45:14;9.60;99.90
37310;DHT22;23195;47.744;7.358;2024-03-08T08:47:42;9.40;99.90
37310;DHT22;23195;47.744;7.358;2024-03-08T08:50:08;9.20;99.90
37310;DHT22;23195;47.744;7.358;2024-03-08T08:52:39;9.10;99.90
37310;DHT22;23195;47.744;7.358;2024-03-08T08:55:11;8.90;99.90
37310;DHT22;23195;47.744;7.358;2024-03-08T08:57:40;8.60;99.90
37310;DHT22;23195;47.744;7.358;2024-03-08T09:00:07;8.50;99.90
37310;DHT22;23195;47.744;7.358;2024-03-08T09:02:38;8.40;99.90
37310;DHT22;23195;47.744;7.358;2024-03-08T09:05:04;8.20;99.90
37310;DHT22;23195;47.744;7.358;2024-03-08T09:07:30;8.20;99.90
37310;DHT22;23195;47.744;7.358;2024-03-08T09:09:57;6.80;99.90
37310;DHT22;23195;47.744;7.358;2024-03-08T09:12:35;8.10;99.90
37310;DHT22;23195;47.744;7.358;2024-03-08T09:15:03;8.00;99.90
37310;DHT22;23195;47.744;7.358;2024-03-08T09:17:30;7.90;99.90
37310;DHT22;23195;47.744;7.358;2024-03-08T09:19:58;7.70;99.90
37310;DHT22;23195;47.744;7.358;2024-03-08T09:22:30;7.50;99.90
37310;DHT22;23195;47.744;7.358;2024-03-08T09:25:01;7.60;99.90
37310;DHT22;23195;47.744;7.358;2024-03-08T09:27:39;7.50;99.90
37310;DHT22;23195;47.744;7.358;2024-03-08T09:30:05;7.10;99.90
37310;DHT22;23195;47.744;7.358;2024-03-08T09:32:45;7.10;99.90
37310;DHT22;23195;47.744;7.358;2024-03-08T09:35:11;7.20;99.90
37310;DHT22;23195;47.744;7.358;2024-03-08T09:37:37;7.10;99.90
37310;DHT22;23195;47.744;7.358;2024-03-08T09:40:06;7.10;99.90
37310;DHT22;23195;47.744;7.358;2024-03-08T09:42:35;7.10;99.90
37310;DHT22;23195;47.744;7.358;2024-03-08T09:45:13;7.10;99.90
37310;DHT22;23195;47.744;7.358;2024-03-08T09:47:50;7.20;99.90
37310;DHT22;23195;47.744;7.358;2024-03-08T09:50:34;7.30;99.90
37310;DHT22;23195;47.744;7.358;2024-03-08T09:53:25;7.30;99.90
37310;DHT22;23195;47.744;7.358;2024-03-08T09:55:52;7.30;99.90
37310;DHT22;23195;47.744;7.358;2024-03-08T09:58:38;7.40;99.90
37310;DHT22;23195;47.744;7.358;2024-03-08T10:01:22;7.50;99.90
37310;DHT22;23195;47.744;7.358;2024-03-08T10:03:54;8.30;99.90
37310;DHT22;23195;47.744;7.358;2024-03-08T10:06:23;7.50;99.90
37310;DHT22;23195;47.744;7.358;2024-03-08T10:08:49;7.50;99.90
37310;DHT22;23195;47.744;7.358;2024-03-08T10:11:25;7.50;99.90
37310;DHT22;23195;47.744;7.358;2024-03-08T10:13:54;7.60;99.90
37310;DHT22;23195;47.744;7.358;2024-03-08T10:16:21;7.60;99.90
37310;DHT22;23195;47.744;7.358;2024-03-08T10:18:49;7.70;99.90
37310;DHT22;23195;47.744;7.358;2024-03-08T10:21:18;7.70;99.90
37310;DHT22;23195;47.744;7.358;2024-03-08T10:23:47;7.70;99.90
37310;DHT22;23195;47.744;7.358;2024-03-08T10:26:19;7.70;99.90
37310;DHT22;23195;47.744;7.358;2024-03-08T10:28:56;7.70;99.90
37310;DHT22;23195;47.744;7.358;2024-03-08T10:31:25;6.40;99.90
37310;DHT22;23195;47.744;7.358;2024-03-08T10:33:51;6.60;99.90
37310;DHT22;23195;47.744;7.358;2024-03-08T10:36:17;7.90;99.90
37310;DHT22;23195;47.744;7.358;2024-03-08T10:38:46;8.10;99.90
37310;DHT22;23195;47.744;7.358;2024-03-08T10:41:13;8.30;99.90
37310;DHT22;23195;47.744;7.358;2024-03-08T10:46:53;8.30;99.90
37310;DHT22;23195;47.744;7.358;2024-03-08T10:49:31;8.30;99.90
37310;DHT22;23195;47.744;7.358;2024-03-08T10:52:04;8.40;99.90
37310;DHT22;23195;47.744;7.358;2024-03-08T10:54:52;8.50;99.90
37310;DHT22;23195;47.744;7.358;2024-03-08T10:57:20;8.50;99.90
37310;DHT22;23195;47.744;7.358;2024-03-08T10:59:53;8.60;99.90
37310;DHT22;23195;47.744;7.358;2024-03-08T11:02:19;8.60;99.90
37310;DHT22;23195;47.744;7.358;2024-03-08T11:04:51;8.80;99.90
37310;DHT22;23195;47.744;7.358;2024-03-08T11:07:20;8.80;99.90
37310;DHT22;23195;47.744;7.358;2024-03-08T11:09:47;8.90;99.90
37310;DHT22;23195;47.744;7.358;2024-03-08T11:12:26;9.00;99.90
37310;DHT22;23195;47.744;7.358;2024-03-08T11:15:10;9.00;99.90
37310;DHT22;23195;47.744;7.358;2024-03-08T11:20:14;8.80;99.90
37310;DHT22;23195;47.744;7.358;2024-03-08T11:22:52;8.80;99.90
37310;DHT22;23195;47.744;7.358;2024-03-08T11:25:40;8.90;99.90
37310;DHT22;23195;47.744;7.358;2024-03-08T11:28:10;9.00;99.90
37310;DHT22;23195;47.744;7.358;2024-03-08T11:30:36;9.10;99.90
37310;DHT22;23195;47.744;7.358;2024-03-08T11:33:04;9.30;99.90
37310;DHT22;23195;47.744;7.358;2024-03-08T11:35:29;9.20;99.90
37310;DHT22;23195;47.744;7.358;2024-03-08T11:37:58;9.30;99.90
37310;DHT22;23195;47.744;7.358;2024-03-08T11:40:26;9.40;99.90
37310;DHT22;23195;47.744;7.358;2024-03-08T11:42:52;9.30;99.90
37310;DHT22;23195;47.744;7.358;2024-03-08T11:45:18;9.40;99.90
37310;DHT22;23195;47.744;7.358;2024-03-08T11:47:47;9.40;99.90
37310;DHT22;23195;47.744;7.358;2024-03-08T11:50:14;9.60;99.90
37310;DHT22;23195;47.744;7.358;2024-03-08T11:52:40;9.70;99.90
37310;DHT22;23195;47.744;7.358;2024-03-08T11:55:07;9.70;99.90
37310;DHT22;23195;47.744;7.358;2024-03-08T11:57:33;9.60;99.90
37310;DHT22;23195;47.744;7.358;2024-03-08T11:59:59;9.60;99.90
37310;DHT22;23195;47.744;7.358;2024-03-08T12:02:34;9.60;99.90
37310;DHT22;23195;47.744;7.358;2024-03-08T12:05:05;9.70;99.90
37310;DHT22;23195;47.744;7.358;2024-03-08T12:07:42;9.70;99.90
37310;DHT22;23195;47.744;7.358;2024-03-08T12:10:19;9.70;99.90
37310;DHT22;23195;47.744;7.358;2024-03-08T12:12:48;8.20;99.90
37310;DHT22;23195;47.744;7.358;2024-03-08T12:15:22;9.90;99.90
37310;DHT22;23195;47.744;7.358;2024-03-08T12:17:49;10.00;99.90
37310;DHT22;23195;47.744;7.358;2024-03-08T12:20:23;9.80;99.90
37310;DHT22;23195;47.744;7.358;2024-03-08T12:22:50;9.90;99.90
37310;DHT22;23195;47.744;7.358;2024-03-08T12:25:22;10.00;99.90
37310;DHT22;23195;47.744;7.358;2024-03-08T12:27:48;9.90;99.90
37310;DHT22;23195;47.744;7.358;2024-03-08T12:30:25;9.80;99.90
37310;DHT22;23195;47.744;7.358;2024-03-08T12:32:59;9.90;99.90
37310;DHT22;23195;47.744;7.358;2024-03-08T12:35:27;9.90;99.90
37310;DHT22;23195;47.744;7.358;2024-03-08T12:37:57;10.00;99.90
37310;DHT22;23195;47.744;7.358;2024-03-08T12:40:31;9.90;99.90
37310;DHT22;23195;47.744;7.358;2024-03-08T12:43:07;10.00;99.90
37310;DHT22;23195;47.744;7.358;2024-03-08T12:45:33;9.90;99.90
37310;DHT22;23195;47.744;7.358;2024-03-08T12:47:59;10.00;99.90
37310;DHT22;23195;47.744;7.358;2024-03-08T12:50:25;10.00;99.90
37310;DHT22;23195;47.744;7.358;2024-03-08T12:52:51;9.90;99.90
37310;DHT22;23195;47.744;7.358;2024-03-08T12:55:18;9.90;99.90
37310;DHT22;23195;47.744;7.358;2024-03-08T12:57:44;9.80;99.90
37310;DHT22;23195;47.744;7.358;2024-03-08T13:00:11;9.90;99.90
37310;DHT22;23195;47.744;7.358;2024-03-08T13:02:48;9.90;99.90
37310;DHT22;23195;47.744;7.358;2024-03-08T13:05:17;10.10;99.90
37310;DHT22;23195;47.744;7.358;2024-03-08T13:07:43;10.20;99.90
37310;DHT22;23195;47.744;7.358;2024-03-08T13:10:12;11.50;99.90
37310;DHT22;23195;47.744;7.358;2024-03-08T13:12:43;10.20;99.90
37310;DHT22;23195;47.744;7.358;2024-03-08T13:15:09;10.20;99.90
37310;DHT22;23195;47.744;7.358;2024-03-08T13:17:40;8.80;99.90
37310;DHT22;23195;47.744;7.358;2024-03-08T13:20:07;10.00;99.90
37310;DHT22;23195;47.744;7.358;2024-03-08T13:22:34;10.10;99.90
37310;DHT22;23195;47.744;7.358;2024-03-08T13:24:59;10.10;99.90
37310;DHT22;23195;47.744;7.358;2024-03-08T13:27:27;10.10;99.90
37310;DHT22;23195;47.744;7.358;2024-03-08T13:29:53;10.20;99.90
37310;DHT22;23195;47.744;7.358;2024-03-08T13:32:19;10.20;99.90
37310;DHT22;23195;47.744;7.358;2024-03-08T13:34:46;10.40;99.90
37310;DHT22;23195;47.744;7.358;2024-03-08T13:37:19;10.50;99.90
37310;DHT22;23195;47.744;7.358;2024-03-08T13:39:45;10.40;99.90
37310;DHT22;23195;47.744;7.358;2024-03-08T13:42:14;10.50;99.90
37310;DHT22;23195;47.744;7.358;2024-03-08T13:44:47;10.50;99.90
37310;DHT22;23195;47.744;7.358;2024-03-08T13:47:14;10.60;99.90
37310;DHT22;23195;47.744;7.358;2024-03-08T13:49:40;10.50;99.90
37310;DHT22;23195;47.744;7.358;2024-03-08T13:52:06;10.60;99.90
37310;DHT22;23195;47.744;7.358;2024-03-08T13:54:34;10.60;99.90
37310;DHT22;23195;47.744;7.358;2024-03-08T13:57:01;10.60;99.90
37310;DHT22;23195;47.744;7.358;2024-03-08T13:59:30;10.70;99.90
37310;DHT22;23195;47.744;7.358;2024-03-08T14:01:59;10.60;99.90
37310;DHT22;23195;47.744;7.358;2024-03-08T14:04:25;10.70;99.90
37310;DHT22;23195;47.744;7.358;2024-03-08T14:06:52;10.80;99.90
37310;DHT22;23195;47.744;7.358;2024-03-08T14:09:29;10.80;99.90
37310;DHT22;23195;47.744;7.358;2024-03-08T14:11:56;10.90;99.90
37310;DHT22;23195;47.744;7.358;2024-03-08T14:14:22;10.90;99.90
37310;DHT22;23195;47.744;7.358;2024-03-08T14:16:51;11.10;99.90
37310;DHT22;23195;47.744;7.358;2024-03-08T14:19:23;11.20;99.90
37310;DHT22;23195;47.744;7.358;2024-03-08T14:21:51;11.30;99.90
37310;DHT22;23195;47.744;7.358;2024-03-08T14:24:19;11.30;99.90
37310;DHT22;23195;47.744;7.358;2024-03-08T14:26:45;11.30;99.90
37310;DHT22;23195;47.744;7.358;2024-03-08T14:29:12;11.40;99.90
37310;DHT22;23195;47.744;7.358;2024-03-08T14:31:38;11.30;99.90
37310;DHT22;23195;47.744;7.358;2024-03-08T14:34:04;11.40;99.90
37310;DHT22;23195;47.744;7.358;2024-03-08T14:36:30;11.40;99.90
37310;DHT22;23195;47.744;7.358;2024-03-08T14:38:56;11.40;99.90
37310;DHT22;23195;47.744;7.358;2024-03-08T14:41:21;11.50;99.90
37310;DHT22;23195;47.744;7.358;2024-03-08T14:43:50;11.50;99.90
37310;DHT22;23195;47.744;7.358;2024-03-08T14:46:19;11.50;99.90
37310;DHT22;23195;47.744;7.358;2024-03-08T14:48:52;11.40;99.90
37310;DHT22;23195;47.744;7.358;2024-03-08T14:51:19;11.30;99.90
37310;DHT22;23195;47.744;7.358;2024-03-08T14:53:52;11.40;99.90
37310;DHT22;23195;47.744;7.358;2024-03-08T14:56:20;11.60;99.90
37310;DHT22;23195;47.744;7.358;2024-03-08T14:58:46;11.70;99.90
37310;DHT22;23195;47.744;7.358;2024-03-08T15:01:15;11.70;99.90
37310;DHT22;23195;47.744;7.358;2024-03-08T15:03:43;11.90;99.90
37310;DHT22;23195;47.744;7.358;2024-03-08T15:06:09;11.90;99.90
37310;DHT22;23195;47.744;7.358;2024-03-08T15:08:36;11.90;99.90
37310;DHT22;23195;47.744;7.358;2024-03-08T15:11:03;11.80;99.90
37310;DHT22;23195;47.744;7.358;2024-03-08T15:13:36;11.70;99.90
37310;DHT22;23195;47.744;7.358;2024-03-08T15:16:07;11.60;99.90
37310;DHT22;23195;47.744;7.358;2024-03-08T15:18:41;11.50;99.90
37310;DHT22;23195;47.744;7.358;2024-03-08T15:21:07;11.30;99.90
37310;DHT22;23195;47.744;7.358;2024-03-08T15:23:38;11.10;99.90
37310;DHT22;23195;47.744;7.358;2024-03-08T15:26:11;11.20;99.90
37310;DHT22;23195;47.744;7.358;2024-03-08T15:28:37;10.80;99.90
37310;DHT22;23195;47.744;7.358;2024-03-08T15:31:12;11.00;99.90
37310;DHT22;23195;47.744;7.358;2024-03-08T15:33:42;10.90;99.90
37310;DHT22;23195;47.744;7.358;2024-03-08T15:36:17;11.30;99.90
37310;DHT22;23195;47.744;7.358;2024-03-08T15:38:45;10.90;99.90
37310;DHT22;23195;47.744;7.358;2024-03-08T15:41:13;10.90;99.90
37310;DHT22;23195;47.744;7.358;2024-03-08T15:43:40;10.90;99.90
37310;DHT22;23195;47.744;7.358;2024-03-08T15:46:07;11.00;99.90
37310;DHT22;23195;47.744;7.358;2024-03-08T15:48:36;11.10;99.90
37310;DHT22;23195;47.744;7.358;2024-03-08T15:51:03;11.10;99.90
37310;DHT22;23195;47.744;7.358;2024-03-08T15:53:33;11.10;99.90
37310;DHT22;23195;47.744;7.358;2024-03-08T15:56:00;11.20;99.90
37310;DHT22;23195;47.744;7.358;2024-03-08T15:58:28;11.00;99.90
37310;DHT22;23195;47.744;7.358;2024-03-08T16:00:57;10.90;99.90